Time;durP1;ratioP1;P1;durP2;ratioP2;P2;SDS_P1;SDS_P2;PMS_P1;PMS_P2;Temp;Humidity;BMP_temperature;BMP_pressure;BME280_temperature;BME280_humidity;BME280_pressure;Samples;Min_cycle;Max_cycle;Signal;HPM_P1;HPM_P2
2021/10/06 00:00:10;;;;;;;2.07;1.20;;;11.00;99.90;;;;;;5089062;28;20480;-66
2021/10/06 00:02:37;;;;;;;3.63;0.90;;;11.00;99.90;;;;;;5090514;28;20448;-66
2021/10/06 00:05:04;;;;;;;3.77;0.83;;;11.00;99.90;;;;;;5090377;28;20462;-66
2021/10/06 00:07:31;;;;;;;5.83;1.10;;;10.90;99.90;;;;;;5088132;28;20454;-66
2021/10/06 00:09:59;;;;;;;2.23;1.07;;;10.90;99.90;;;;;;5071089;28;20473;-66
2021/10/06 00:12:26;;;;;;;5.13;1.53;;;10.80;99.90;;;;;;5073504;28;20448;-66
2021/10/06 00:14:53;;;;;;;1.90;0.90;;;10.80;99.90;;;;;;5089115;28;20448;-66
2021/10/06 00:17:20;;;;;;;3.57;1.10;;;10.60;99.90;;;;;;5090981;28;20449;-66
2021/10/06 00:19:47;;;;;;;3.00;0.80;;;10.70;99.90;;;;;;5090782;28;20535;-66
2021/10/06 00:22:14;;;;;;;2.00;0.80;;;10.60;99.90;;;;;;5091314;28;20447;-66
2021/10/06 00:24:40;;;;;;;3.03;1.20;;;10.60;99.90;;;;;;5090156;28;20455;-66
2021/10/06 00:27:09;;;;;;;2.40;1.10;;;10.50;99.90;;;;;;5086235;28;20452;-66
2021/10/06 00:29:36;;;;;;;1.97;1.07;;;10.50;99.90;;;;;;5086409;28;20524;-66
2021/10/06 00:32:04;;;;;;;1.10;0.67;;;10.60;99.90;;;;;;5079211;28;20728;-66
2021/10/06 00:34:31;;;;;;;2.30;1.57;;;10.50;99.90;;;;;;5071155;28;20438;-66
2021/10/06 00:36:57;;;;;;;2.53;1.10;;;10.50;99.90;;;;;;5089859;28;20487;-66
2021/10/06 00:39:24;;;;;;;1.30;0.70;;;10.60;99.90;;;;;;5086555;28;20448;-66
2021/10/06 00:41:51;;;;;;;3.33;1.00;;;10.50;99.90;;;;;;5070335;28;20524;-66
2021/10/06 00:44:22;;;;;;;2.87;1.00;;;10.70;99.90;;;;;;5073592;28;20813;-66
2021/10/06 00:46:49;;;;;;;1.23;0.70;;;10.70;99.90;;;;;;5072678;28;20923;-66
2021/10/06 00:49:17;;;;;;;0.90;0.73;;;10.70;99.90;;;;;;5083450;28;21199;-66
2021/10/06 00:51:44;;;;;;;2.30;0.90;;;10.70;99.90;;;;;;5090307;28;20448;-66
2021/10/06 00:54:11;;;;;;;2.60;1.03;;;10.60;99.90;;;;;;5091123;28;20448;-66
2021/10/06 00:56:38;;;;;;;1.97;1.07;;;10.40;99.90;;;;;;5089495;28;20480;-66
2021/10/06 00:59:05;;;;;;;3.57;0.80;;;10.30;99.90;;;;;;5085802;28;20449;-66
2021/10/06 01:01:33;;;;;;;2.07;1.17;;;10.20;99.90;;;;;;5070809;28;20448;-66
2021/10/06 01:04:01;;;;;;;2.93;1.20;;;10.20;99.90;;;;;;5075796;28;20546;-66
2021/10/06 01:06:28;;;;;;;1.40;0.83;;;10.40;99.90;;;;;;5070621;28;20929;-66
2021/10/06 01:08:57;;;;;;;2.90;0.80;;;10.60;99.90;;;;;;5074450;28;20455;-66
2021/10/06 01:11:24;;;;;;;2.17;0.87;;;10.60;99.90;;;;;;5084186;28;20459;-66
2021/10/06 01:13:51;;;;;;;1.67;1.00;;;10.70;99.90;;;;;;5075849;28;21012;-67
2021/10/06 01:16:18;;;;;;;2.73;1.10;;;10.60;99.90;;;;;;5072874;28;20472;-66
2021/10/06 01:18:46;;;;;;;1.97;1.10;;;10.50;99.90;;;;;;5080242;28;20441;-66
2021/10/06 01:21:15;;;;;;;3.67;1.00;;;10.60;99.90;;;;;;5089761;28;20447;-66
2021/10/06 01:23:42;;;;;;;3.83;0.97;;;10.80;99.90;;;;;;5090000;28;20516;-66
2021/10/06 01:26:10;;;;;;;2.07;1.37;;;10.90;99.90;;;;;;5084918;28;20440;-66
2021/10/06 01:28:37;;;;;;;1.37;0.90;;;11.00;99.90;;;;;;5090038;28;20464;-66
2021/10/06 01:31:04;;;;;;;2.57;1.30;;;11.00;99.90;;;;;;5089720;28;20698;-66
2021/10/06 01:33:31;;;;;;;3.27;1.07;;;11.10;99.90;;;;;;5074131;28;20473;-66
2021/10/06 01:35:58;;;;;;;5.23;1.03;;;11.00;99.90;;;;;;5074867;28;20490;-66
2021/10/06 01:38:26;;;;;;;1.87;0.90;;;10.90;99.90;;;;;;5070204;28;20437;-66
2021/10/06 01:40:53;;;;;;;2.90;1.20;;;11.00;99.90;;;;;;5083838;28;20459;-66
2021/10/06 01:43:20;;;;;;;1.63;1.00;;;11.00;99.90;;;;;;5090138;28;20775;-66
2021/10/06 01:45:47;;;;;;;1.30;0.80;;;10.90;99.90;;;;;;5085094;28;20455;-66
2021/10/06 01:48:14;;;;;;;2.70;1.37;;;11.00;99.90;;;;;;5070169;28;20434;-66
2021/10/06 01:50:43;;;;;;;1.97;1.00;;;11.00;99.90;;;;;;5083869;28;20466;-66
2021/10/06 01:53:11;;;;;;;2.03;0.73;;;10.90;99.90;;;;;;5077890;28;20433;-66
2021/10/06 01:55:40;;;;;;;1.77;0.80;;;11.00;99.90;;;;;;5071053;28;20457;-66
2021/10/06 01:58:10;;;;;;;3.20;1.00;;;10.90;99.90;;;;;;5088896;28;20440;-66
2021/10/06 02:00:39;;;;;;;3.37;1.43;;;10.90;99.90;;;;;;5077399;28;20448;-66
2021/10/06 02:03:06;;;;;;;1.37;1.23;;;10.60;99.90;;;;;;5070635;28;20922;-66
2021/10/06 02:05:33;;;;;;;2.77;1.20;;;10.40;99.90;;;;;;5093314;28;20451;-66
2021/10/06 02:08:01;;;;;;;1.20;0.83;;;10.20;99.90;;;;;;5086005;28;20534;-66
2021/10/06 02:10:28;;;;;;;3.87;0.90;;;10.20;99.90;;;;;;5077299;28;20972;-66
2021/10/06 02:12:57;;;;;;;1.17;0.90;;;10.10;99.90;;;;;;5086071;28;20441;-66
2021/10/06 02:15:25;;;;;;;3.13;1.40;;;10.10;99.90;;;;;;5074890;28;20537;-66
2021/10/06 02:17:52;;;;;;;1.53;0.90;;;10.00;99.90;;;;;;5073278;28;20483;-66
2021/10/06 02:20:19;;;;;;;2.90;1.17;;;10.00;99.90;;;;;;5073983;28;20802;-66
2021/10/06 02:22:46;;;;;;;1.87;1.10;;;9.90;99.90;;;;;;5073109;28;20448;-66
2021/10/06 02:25:13;;;;;;;2.90;2.10;;;9.80;99.90;;;;;;5083837;28;20448;-66
2021/10/06 02:27:40;;;;;;;1.77;0.90;;;9.80;99.90;;;;;;5086390;28;20452;-66
2021/10/06 02:30:10;;;;;;;1.73;1.03;;;10.30;99.90;;;;;;5078361;28;20444;-66
2021/10/06 02:32:37;;;;;;;1.90;1.00;;;10.30;99.90;;;;;;5076992;28;20512;-66
2021/10/06 02:35:05;;;;;;;1.13;1.00;;;10.10;99.90;;;;;;5092971;28;20829;-66
2021/10/06 02:37:31;;;;;;;4.73;1.20;;;9.90;99.90;;;;;;5092378;28;20472;-67
2021/10/06 02:39:58;;;;;;;2.43;0.90;;;9.90;99.90;;;;;;5085827;28;20459;-66
2021/10/06 02:42:26;;;;;;;1.80;1.20;;;10.00;99.90;;;;;;5073388;28;20785;-67
2021/10/06 02:44:53;;;;;;;1.60;1.00;;;10.00;99.90;;;;;;5072889;28;20456;-66
2021/10/06 02:47:21;;;;;;;1.90;1.30;;;10.00;99.90;;;;;;5085892;28;20444;-66
2021/10/06 02:49:48;;;;;;;1.47;1.03;;;9.90;99.90;;;;;;5080707;28;21042;-66
2021/10/06 02:52:15;;;;;;;1.10;0.90;;;9.80;99.90;;;;;;5075308;28;20528;-67
2021/10/06 02:54:42;;;;;;;1.97;0.97;;;9.70;99.90;;;;;;5080000;28;20433;-67
2021/10/06 02:57:09;;;;;;;3.07;1.30;;;9.70;99.90;;;;;;5084695;28;20842;-67
2021/10/06 02:59:36;;;;;;;4.33;1.00;;;9.60;99.90;;;;;;5092202;28;20544;-67
2021/10/06 03:02:03;;;;;;;6.07;1.07;;;9.60;99.90;;;;;;5072392;28;20529;-66
2021/10/06 03:04:31;;;;;;;1.07;0.90;;;9.60;99.90;;;;;;5091975;28;20908;-67
2021/10/06 03:06:58;;;;;;;2.73;0.90;;;9.60;99.90;;;;;;5091288;28;20535;-66
2021/10/06 03:09:25;;;;;;;3.47;1.20;;;9.60;99.90;;;;;;5079393;28;20468;-67
2021/10/06 03:11:52;;;;;;;5.20;1.63;;;9.50;99.90;;;;;;5092121;28;20532;-66
2021/10/06 03:14:19;;;;;;;1.80;1.10;;;9.60;99.90;;;;;;5091898;28;20447;-66
2021/10/06 03:16:46;;;;;;;2.40;1.43;;;9.70;99.90;;;;;;5079724;28;20483;-66
2021/10/06 03:19:12;;;;;;;6.30;1.10;;;9.70;99.90;;;;;;5072711;28;20445;-66
2021/10/06 03:21:41;;;;;;;1.73;1.03;;;9.50;99.90;;;;;;5072066;28;20534;-66
2021/10/06 03:24:07;;;;;;;2.23;1.20;;;9.40;99.90;;;;;;5074112;28;20457;-67
2021/10/06 03:26:34;;;;;;;4.40;1.50;;;9.50;99.90;;;;;;5078338;28;20466;-66
2021/10/06 03:29:01;;;;;;;2.57;1.70;;;9.50;99.90;;;;;;5071864;28;20444;-66
2021/10/06 03:31:28;;;;;;;2.57;1.40;;;9.50;99.90;;;;;;5073551;28;20447;-67
2021/10/06 03:33:57;;;;;;;2.57;1.13;;;9.50;99.90;;;;;;5089574;28;20441;-68
2021/10/06 03:36:23;;;;;;;2.50;1.83;;;9.50;99.90;;;;;;5079729;28;20485;-66
2021/10/06 03:38:52;;;;;;;1.20;0.90;;;9.50;99.90;;;;;;5079225;28;20463;-66
2021/10/06 03:41:18;;;;;;;3.73;1.50;;;9.60;99.90;;;;;;5073757;28;20884;-66
2021/10/06 03:43:46;;;;;;;2.60;1.40;;;9.60;99.90;;;;;;5071440;28;20437;-66
2021/10/06 03:46:12;;;;;;;3.40;1.30;;;9.70;99.90;;;;;;5089801;28;20441;-67
2021/10/06 03:48:39;;;;;;;2.60;1.27;;;9.60;99.90;;;;;;5090534;28;20955;-67
2021/10/06 03:51:06;;;;;;;3.43;1.83;;;9.60;99.90;;;;;;5091066;28;20805;-66
2021/10/06 03:53:33;;;;;;;3.63;1.37;;;9.60;99.90;;;;;;5074357;28;20953;-67
2021/10/06 03:56:01;;;;;;;3.20;1.27;;;9.60;99.90;;;;;;5078801;28;20467;-66
2021/10/06 03:58:28;;;;;;;3.47;1.30;;;9.60;99.90;;;;;;5071961;28;20477;-67
2021/10/06 04:00:55;;;;;;;2.50;1.27;;;9.60;99.90;;;;;;5082795;28;20533;-66
2021/10/06 04:03:22;;;;;;;1.80;1.20;;;9.60;99.90;;;;;;5071341;28;20491;-66
2021/10/06 04:05:50;;;;;;;1.80;1.20;;;9.60;99.90;;;;;;5087096;28;20460;-66
2021/10/06 04:08:18;;;;;;;3.63;1.63;;;9.70;99.90;;;;;;5090050;28;20584;-66
2021/10/06 04:10:45;;;;;;;4.67;1.70;;;9.70;99.90;;;;;;5077994;28;20475;-67
2021/10/06 04:13:13;;;;;;;2.00;1.40;;;9.80;99.90;;;;;;5091677;28;20468;-66
2021/10/06 04:15:40;;;;;;;2.00;1.23;;;9.80;99.90;;;;;;5088420;28;20449;-66
2021/10/06 04:18:07;;;;;;;4.37;1.00;;;9.80;99.90;;;;;;5090819;28;20480;-67
2021/10/06 04:20:34;;;;;;;2.10;0.87;;;9.70;99.90;;;;;;5090746;28;20469;-66
2021/10/06 04:23:01;;;;;;;2.70;1.50;;;9.70;99.90;;;;;;5090621;28;20920;-66
2021/10/06 04:25:28;;;;;;;1.90;1.30;;;9.70;99.90;;;;;;5086807;28;20438;-67
2021/10/06 04:27:55;;;;;;;4.70;1.00;;;9.70;99.90;;;;;;5069951;28;20455;-66
2021/10/06 04:30:23;;;;;;;5.77;1.43;;;9.70;99.90;;;;;;5071190;28;20449;-66
2021/10/06 04:32:50;;;;;;;1.83;1.63;;;9.80;99.90;;;;;;5083326;28;20476;-66
2021/10/06 04:35:17;;;;;;;1.73;1.10;;;9.70;99.90;;;;;;5072290;28;20445;-66
2021/10/06 04:37:44;;;;;;;3.47;1.50;;;9.70;99.90;;;;;;5078439;28;20473;-66
2021/10/06 04:40:11;;;;;;;3.13;1.47;;;9.70;99.90;;;;;;5086404;28;20853;-66
2021/10/06 04:42:38;;;;;;;2.03;1.07;;;9.70;99.90;;;;;;5070567;28;20445;-66
2021/10/06 04:45:06;;;;;;;3.83;1.30;;;9.70;99.90;;;;;;5070316;28;20433;-66
2021/10/06 04:47:34;;;;;;;1.93;1.57;;;9.70;99.90;;;;;;5075116;28;20453;-67
2021/10/06 04:50:01;;;;;;;3.33;1.07;;;9.80;99.90;;;;;;5089784;28;20928;-66
2021/10/06 04:52:28;;;;;;;2.73;1.10;;;9.90;99.90;;;;;;5090728;28;20472;-67
2021/10/06 04:54:55;;;;;;;8.00;2.13;;;9.80;99.90;;;;;;5090511;28;20943;-66
2021/10/06 04:57:22;;;;;;;3.80;1.30;;;9.80;99.90;;;;;;5085815;28;20479;-66
2021/10/06 04:59:49;;;;;;;1.17;1.07;;;9.80;99.90;;;;;;5081361;28;20535;-66
2021/10/06 05:02:16;;;;;;;2.77;1.23;;;9.80;99.90;;;;;;5089999;28;20536;-67
2021/10/06 05:04:44;;;;;;;2.63;1.13;;;9.80;99.90;;;;;;5071047;28;20445;-66
2021/10/06 05:07:11;;;;;;;10.03;1.23;;;9.90;99.90;;;;;;5076569;28;20453;-67
2021/10/06 05:09:38;;;;;;;1.37;1.10;;;9.90;99.90;;;;;;5079828;28;20588;-66
2021/10/06 05:12:05;;;;;;;2.80;1.37;;;9.90;99.90;;;;;;5085358;28;20439;-66
2021/10/06 05:14:32;;;;;;;1.33;1.20;;;10.10;99.90;;;;;;5085680;28;20445;-67
2021/10/06 05:16:59;;;;;;;3.30;0.80;;;10.00;99.90;;;;;;5088953;28;20472;-66
2021/10/06 05:19:26;;;;;;;4.10;1.43;;;10.00;99.90;;;;;;5071321;28;20550;-67
2021/10/06 05:21:54;;;;;;;1.87;1.00;;;10.00;99.90;;;;;;5077802;28;20445;-66
2021/10/06 05:24:21;;;;;;;2.60;1.40;;;10.10;99.90;;;;;;5078228;28;20453;-66
2021/10/06 05:26:48;;;;;;;2.00;1.30;;;10.10;99.90;;;;;;5072642;28;20520;-68
2021/10/06 05:29:15;;;;;;;2.20;1.30;;;10.10;99.90;;;;;;5075693;28;20437;-67
2021/10/06 05:31:42;;;;;;;2.77;1.70;;;10.30;99.90;;;;;;5084201;28;20444;-66
2021/10/06 05:34:09;;;;;;;3.53;1.67;;;10.40;99.90;;;;;;5083686;28;20445;-66
2021/10/06 05:36:36;;;;;;;1.27;0.90;;;10.30;99.90;;;;;;5070273;28;20460;-66
2021/10/06 05:39:04;;;;;;;2.53;0.83;;;10.30;99.90;;;;;;5082816;28;20465;-66
2021/10/06 05:41:31;;;;;;;1.50;0.90;;;10.40;99.90;;;;;;5084563;28;20980;-66
2021/10/06 05:43:58;;;;;;;5.13;2.23;;;10.40;99.90;;;;;;5073990;28;20445;-66
2021/10/06 05:46:27;;;;;;;3.13;1.83;;;10.40;99.90;;;;;;5084632;28;20443;-66
2021/10/06 05:48:54;;;;;;;3.80;1.47;;;10.30;99.90;;;;;;5073303;28;20539;-66
2021/10/06 05:51:21;;;;;;;4.47;1.40;;;10.40;99.90;;;;;;5079827;28;20539;-66
2021/10/06 05:53:48;;;;;;;2.73;1.47;;;10.20;99.90;;;;;;5073173;28;20464;-66
2021/10/06 05:56:16;;;;;;;1.97;1.20;;;10.30;99.90;;;;;;5081849;28;20804;-66
2021/10/06 05:58:43;;;;;;;3.33;1.80;;;10.20;99.90;;;;;;5088181;28;20479;-66
2021/10/06 06:01:10;;;;;;;2.50;1.27;;;10.30;99.90;;;;;;5086112;28;20522;-66
2021/10/06 06:03:36;;;;;;;2.87;0.87;;;10.30;99.90;;;;;;5093984;28;20451;-67
2021/10/06 06:06:03;;;;;;;1.40;1.10;;;10.30;99.90;;;;;;5084893;28;20520;-67
2021/10/06 06:08:31;;;;;;;2.37;1.10;;;10.30;99.90;;;;;;5078306;28;20446;-67
2021/10/06 06:10:58;;;;;;;2.30;1.40;;;10.30;99.90;;;;;;5077489;28;20803;-66
2021/10/06 06:13:26;;;;;;;2.90;1.30;;;10.30;99.90;;;;;;5093575;28;20471;-66
2021/10/06 06:15:53;;;;;;;1.73;1.13;;;10.30;99.90;;;;;;5079278;28;20441;-66
2021/10/06 06:18:20;;;;;;;2.30;1.27;;;10.30;99.90;;;;;;5085685;28;20479;-66
2021/10/06 06:20:47;;;;;;;2.73;1.10;;;10.30;99.90;;;;;;5089127;28;20451;-66
2021/10/06 06:23:14;;;;;;;1.50;1.23;;;10.20;99.90;;;;;;5093509;28;20440;-66
2021/10/06 06:25:41;;;;;;;1.87;1.33;;;10.20;99.90;;;;;;5092587;28;20444;-65
2021/10/06 06:28:08;;;;;;;4.30;1.30;;;10.20;99.90;;;;;;5080654;28;20445;-66
2021/10/06 06:30:36;;;;;;;1.60;1.20;;;10.20;99.90;;;;;;5085936;28;20438;-66
2021/10/06 06:33:03;;;;;;;2.50;1.10;;;10.10;99.90;;;;;;5085007;28;20446;-66
2021/10/06 06:35:30;;;;;;;5.33;1.60;;;10.10;99.90;;;;;;5088363;28;20953;-66
2021/10/06 06:37:57;;;;;;;3.27;1.00;;;10.20;99.90;;;;;;5088450;28;20480;-66
2021/10/06 06:40:25;;;;;;;2.80;1.70;;;10.20;99.90;;;;;;5088363;28;20457;-66
2021/10/06 06:42:52;;;;;;;2.27;1.10;;;10.20;99.90;;;;;;5074608;28;20449;-66
2021/10/06 06:45:19;;;;;;;7.50;1.40;;;10.20;99.90;;;;;;5081373;28;20445;-66
2021/10/06 06:47:47;;;;;;;9.47;3.40;;;10.30;99.90;;;;;;5075930;28;20794;-66
2021/10/06 06:50:17;;;;;;;2.70;1.23;;;10.30;99.90;;;;;;5075835;28;20441;-66
2021/10/06 06:52:44;;;;;;;2.03;1.33;;;10.40;99.90;;;;;;5074902;28;20457;-66
2021/10/06 06:55:11;;;;;;;1.30;1.20;;;10.50;99.90;;;;;;5077024;28;20445;-66
2021/10/06 06:57:38;;;;;;;6.73;1.30;;;10.50;99.90;;;;;;5084845;28;20483;-66
2021/10/06 07:00:06;;;;;;;3.50;1.33;;;10.50;99.90;;;;;;5075254;28;20445;-66
2021/10/06 07:02:33;;;;;;;1.63;1.40;;;10.50;99.90;;;;;;5080116;28;20461;-66
2021/10/06 07:05:02;;;;;;;4.50;1.63;;;10.60;99.90;;;;;;5086847;28;20458;-66
2021/10/06 07:07:29;;;;;;;1.80;1.27;;;10.60;99.90;;;;;;5077702;28;20571;-66
2021/10/06 07:09:56;;;;;;;2.47;1.30;;;10.60;99.90;;;;;;5082881;28;20473;-66
2021/10/06 07:12:23;;;;;;;2.03;1.57;;;10.60;99.90;;;;;;5085373;28;20540;-65
2021/10/06 07:14:51;;;;;;;5.67;1.50;;;10.70;99.90;;;;;;5087075;28;20449;-66
2021/10/06 07:17:19;;;;;;;4.33;1.37;;;10.70;99.90;;;;;;5078870;28;20446;-66
2021/10/06 07:19:47;;;;;;;2.70;1.37;;;10.80;99.90;;;;;;5080512;28;20562;-66
2021/10/06 07:22:17;;;;;;;5.23;1.40;;;11.00;99.90;;;;;;5079222;28;20461;-67
2021/10/06 07:24:44;;;;;;;5.40;1.37;;;11.00;99.90;;;;;;5074414;28;20540;-66
2021/10/06 07:27:11;;;;;;;1.93;1.00;;;11.20;99.90;;;;;;5088687;28;20460;-66
2021/10/06 07:29:38;;;;;;;3.97;1.17;;;11.20;99.90;;;;;;5085717;28;20553;-66
2021/10/06 07:32:06;;;;;;;1.77;1.10;;;11.30;1.00;;;;;;5082097;28;20468;-66
2021/10/06 07:34:33;;;;;;;3.33;1.00;;;11.30;1.00;;;;;;5077402;28;20446;-66
2021/10/06 07:37:00;;;;;;;2.73;1.20;;;11.40;1.00;;;;;;5073219;28;20471;-66
2021/10/06 07:39:28;;;;;;;1.30;0.90;;;11.50;1.00;;;;;;5090528;28;20527;-66
2021/10/06 07:41:55;;;;;;;4.27;1.20;;;11.50;99.90;;;;;;5077367;28;20440;-66
2021/10/06 07:44:22;;;;;;;2.70;1.03;;;11.60;1.00;;;;;;5089427;28;20455;-66
2021/10/06 07:46:49;;;;;;;2.30;1.03;;;11.60;1.00;;;;;;5087901;28;20986;-66
2021/10/06 07:49:16;;;;;;;2.40;1.07;;;11.70;99.90;;;;;;5075996;28;20468;-67
2021/10/06 07:51:44;;;;;;;3.87;1.10;;;;;;;;;;5083949;28;20958;-66
2021/10/06 07:54:11;;;;;;;6.67;1.30;;;;;;;;;;5089310;28;20513;-66
2021/10/06 07:56:39;;;;;;;3.00;0.90;;;;;;;;;;5086771;28;20450;-66
2021/10/06 07:59:07;;;;;;;6.17;2.37;;;;;;;;;;5079735;28;20484;-66
2021/10/06 08:01:34;;;;;;;1.70;1.10;;;;;;;;;;5079488;28;20457;-66
2021/10/06 08:04:01;;;;;;;4.07;1.10;;;;;;;;;;5070984;28;20537;-66
2021/10/06 08:06:28;;;;;;;1.20;0.90;;;;;;;;;;5078106;28;20450;-66
2021/10/06 08:08:56;;;;;;;1.70;1.00;;;;;;;;;;5083390;28;20456;-66
2021/10/06 08:11:23;;;;;;;3.80;1.07;;;;;;;;;;5082040;28;20473;-67
2021/10/06 08:13:51;;;;;;;2.83;1.30;;;;;;;;;;5082644;28;20449;-66
2021/10/06 08:16:18;;;;;;;1.60;0.93;;;;;;;;;;5079250;28;20536;-66
2021/10/06 08:18:46;;;;;;;3.50;1.00;;;;;;;;;;5072313;28;21039;-67
2021/10/06 08:21:13;;;;;;;3.60;1.00;;;;;;;;;;5078842;28;20485;-67
2021/10/06 08:23:40;;;;;;;2.47;1.20;;;;;;;;;;5077584;28;20446;-66
2021/10/06 08:26:07;;;;;;;2.00;1.10;;;;;;;;;;5071301;28;20744;-66
2021/10/06 08:28:35;;;;;;;1.77;1.13;;;;;;;;;;5071634;28;20437;-67
2021/10/06 08:31:03;;;;;;;4.83;1.27;;;;;;;;;;5070617;28;20985;-66
2021/10/06 08:33:31;;;;;;;1.43;1.00;;;;;;;;;;5071356;28;21027;-67
2021/10/06 08:35:58;;;;;;;2.50;0.80;;;;;;;;;;5080189;28;20471;-67
2021/10/06 08:38:25;;;;;;;0.90;0.80;;;;;;;;;;5073203;28;20973;-67
2021/10/06 08:40:52;;;;;;;4.17;1.70;;;;;;;;;;5077978;28;20453;-67
2021/10/06 08:43:19;;;;;;;3.00;1.13;;;;;;;;;;5070832;28;20452;-66
2021/10/06 08:45:47;;;;;;;1.27;0.70;;;;;;;;;;5069214;28;20577;-67
2021/10/06 08:48:15;;;;;;;2.20;0.70;;;;;;;;;;5069731;28;20449;-66
2021/10/06 08:50:43;;;;;;;2.10;0.93;;;;;;;;;;5071180;28;20537;-66
2021/10/06 08:53:10;;;;;;;1.77;1.33;;;;;;;;;;5077361;28;20995;-66
2021/10/06 08:55:37;;;;;;;3.63;1.80;;;;;;;;;;5074035;28;20466;-67
2021/10/06 08:58:05;;;;;;;1.60;0.87;;;;;;;;;;5073161;28;20482;-67
2021/10/06 09:00:32;;;;;;;2.23;0.80;;;;;;;;;;5068962;28;20437;-67
2021/10/06 09:03:07;;;;;;;2.87;1.10;;;;;;;;;;5082703;28;20449;-67
2021/10/06 09:05:36;;;;;;;6.63;1.43;;;;;;;;;;5078383;28;20450;-67
2021/10/06 09:08:04;;;;;;;4.90;1.50;;;;;;;;;;5069327;28;20547;-67
2021/10/06 09:10:33;;;;;;;3.30;1.20;;;;;;;;;;5073502;28;20484;-67
2021/10/06 09:13:01;;;;;;;3.40;1.07;;;;;;;;;;5074705;28;20446;-67
2021/10/06 09:15:34;;;;;;;4.93;1.23;;;;;;;;;;5071522;28;20453;-67
2021/10/06 09:18:01;;;;;;;4.03;1.10;;;;;;;;;;5072992;28;20500;-67
2021/10/06 09:20:37;;;;;;;1.37;0.90;;;;;;;;;;5078037;28;20441;-68
2021/10/06 09:23:06;;;;;;;7.20;2.03;;;;;;;;;;5069073;28;20775;-68
2021/10/06 09:25:39;;;;;;;4.03;1.07;;;;;;;;;;5084945;28;21055;-67
2021/10/06 09:28:07;;;;;;;2.63;1.23;;;;;;;;;;5069803;28;20445;-67
2021/10/06 09:30:35;;;;;;;1.40;0.80;;;;;;;;;;5081663;28;20454;-67
2021/10/06 09:33:04;;;;;;;3.10;1.07;;;;;;;;;;5089819;28;20456;-68
2021/10/06 09:35:31;;;;;;;2.60;1.30;;;;;;;;;;5085124;28;20448;-67
2021/10/06 09:38:00;;;;;;;1.80;0.80;;;;;;;;;;5075020;28;20453;-66
2021/10/06 09:40:29;;;;;;;2.40;1.20;;;;;;;;;;5089293;28;20452;-67
2021/10/06 09:42:57;;;;;;;2.03;0.83;;;;;;;;;;5089069;28;20441;-67
2021/10/06 09:45:26;;;;;;;2.97;1.17;;;;;;;;;;5085954;28;20449;-67
2021/10/06 09:48:04;;;;;;;4.43;1.13;;;;;;;;;;5069882;28;20462;-67
2021/10/06 09:50:32;;;;;;;3.00;1.73;;;;;;;;;;5076747;28;20454;-67
2021/10/06 09:53:08;;;;;;;4.20;1.30;;;;;;;;;;5080339;28;20929;-67
2021/10/06 09:55:35;;;;;;;2.60;1.10;;;;;;;;;;5075525;28;20458;-67
2021/10/06 09:58:03;;;;;;;3.40;1.10;;;;;;;;;;5083522;28;20872;-70
2021/10/06 10:00:31;;;;;;;2.20;1.23;;;;;;;;;;5080919;28;20820;-67
2021/10/06 10:02:58;;;;;;;2.70;0.80;;;;;;;;;;5073097;28;20740;-67
2021/10/06 10:05:25;;;;;;;3.13;1.23;;;;;;;;;;5071229;28;20789;-66
2021/10/06 10:07:53;;;;;;;2.40;0.90;;;;;;;;;;5075436;28;20461;-66
2021/10/06 10:10:22;;;;;;;4.47;0.80;;;;;;;;;;5070343;28;20481;-66
2021/10/06 10:12:50;;;;;;;2.23;1.07;;;;;;;;;;5070113;28;20441;-66
2021/10/06 10:15:19;;;;;;;1.50;0.97;;;;;;;;;;5072584;28;20475;-67
2021/10/06 10:17:47;;;;;;;2.03;1.10;;;;;;;;;;5070489;28;20450;-67
2021/10/06 10:20:15;;;;;;;2.67;0.77;;;;;;;;;;5073527;28;20898;-67
2021/10/06 10:22:43;;;;;;;3.50;1.23;;;;;;;;;;5074163;28;20452;-67
2021/10/06 10:25:18;;;;;;;3.47;0.90;;;;;;;;;;5075514;28;20492;-67
2021/10/06 10:28:08;;;;;;;1.10;0.70;;;;;;;;;;5089379;28;20455;-67
2021/10/06 10:30:36;;;;;;;1.77;1.07;;;;;;;;;;5078512;28;20453;-67
2021/10/06 10:33:03;;;;;;;1.83;1.00;;;;;;;;;;5089363;28;20881;-67
2021/10/06 10:35:38;;;;;;;2.20;1.10;;;11.90;99.90;;;;;;5079378;28;20480;-67
2021/10/06 10:38:07;;;;;;;2.10;0.80;;;13.70;99.90;;;;;;5075652;28;21084;-67
2021/10/06 10:40:45;;;;;;;4.90;0.90;;;14.00;99.90;;;;;;5084350;28;20601;-67
2021/10/06 10:43:16;;;;;;;2.20;1.00;;;14.10;99.90;;;;;;5083450;28;20454;-67
2021/10/06 10:46:05;;;;;;;2.23;0.90;;;14.30;1.00;;;;;;5074516;28;20502;-66
2021/10/06 10:48:39;;;;;;;5.80;1.13;;;14.30;99.90;;;;;;5085668;28;20957;-67
2021/10/06 10:51:09;;;;;;;2.43;0.80;;;14.10;99.90;;;;;;5070540;28;20472;-66
2021/10/06 10:53:56;;;;;;;2.27;0.93;;;13.20;1.00;;;;;;5087757;28;20489;-66
2021/10/06 10:56:26;;;;;;;4.70;2.07;;;12.30;37.70;;;;;;5084039;28;20556;-66
2021/10/06 10:59:06;;;;;;;1.70;0.90;;;12.00;1.00;;;;;;5070795;28;20608;-66
2021/10/06 11:01:55;;;;;;;1.27;0.90;;;12.10;99.90;;;;;;5076113;28;20443;-66
2021/10/06 11:04:25;;;;;;;2.97;1.67;;;12.20;99.90;;;;;;5079692;28;20460;-67
2021/10/06 11:06:54;;;;;;;1.90;0.97;;;12.50;99.90;;;;;;5088848;28;20436;-66
2021/10/06 11:09:53;;;;;;;5.30;1.17;;;13.00;99.90;;;;;;5085049;28;20476;-66
2021/10/06 11:12:39;;;;;;;1.50;1.10;;;13.30;99.90;;;;;;5007377;28;20527;-66
2021/10/06 11:15:25;;;;;;;3.20;2.10;;;13.60;99.90;;;;;;5073710;28;20532;-66
2021/10/06 11:18:15;;;;;;;4.03;1.23;;;13.80;99.90;;;;;;5072795;28;20456;-65
2021/10/06 11:20:49;;;;;;;3.60;1.00;;;14.00;99.90;;;;;;5076036;28;20896;-66
2021/10/06 11:23:45;;;;;;;2.70;1.07;;;14.00;99.90;;;;;;5088730;28;21128;-66
2021/10/06 11:26:15;;;;;;;2.63;1.10;;;14.00;1.00;;;;;;5083681;28;20452;-66
2021/10/06 11:28:44;;;;;;;3.63;1.60;;;14.10;1.00;;;;;;5075135;28;20535;-66
2021/10/06 11:31:13;;;;;;;2.20;1.20;;;14.00;99.90;;;;;;5079636;28;20442;-66
2021/10/06 11:33:41;;;;;;;1.90;1.07;;;14.10;1.00;;;;;;5080210;28;20816;-66
2021/10/06 11:36:16;;;;;;;1.00;0.90;;;14.20;99.90;;;;;;5069101;28;20470;-66
2021/10/06 11:38:44;;;;;;;6.30;1.10;;;;;;;;;;5075037;28;20571;-66
2021/10/06 11:41:11;;;;;;;2.30;1.07;;;;;;;;;;5073959;28;20881;-66
2021/10/06 11:43:42;;;;;;;2.00;0.90;;;;;;;;;;5076489;28;20446;-66
2021/10/06 11:46:14;;;;;;;1.50;0.80;;;;;;;;;;5077779;28;20459;-66
2021/10/06 11:48:41;;;;;;;3.00;0.97;;;;;;;;;;5069153;28;20565;-66
2021/10/06 11:51:09;;;;;;;4.87;1.30;;;;;;;;;;5074007;28;20453;-66
2021/10/06 11:53:40;;;;;;;1.87;0.80;;;;;;;;;;5067359;28;20524;-67
2021/10/06 11:56:07;;;;;;;2.90;0.83;;;;;;;;;;5080278;28;20548;-67
2021/10/06 11:58:34;;;;;;;2.07;1.03;;;;;;;;;;5079401;28;20933;-67
2021/10/06 12:01:06;;;;;;;1.00;0.80;;;;;;;;;;5076336;28;20493;-67
2021/10/06 12:03:41;;;;;;;2.47;0.80;;;;;;;;;;5069299;28;20449;-67
2021/10/06 12:06:08;;;;;;;2.13;1.10;;;;;;;;;;5072192;28;21050;-67
2021/10/06 12:08:36;;;;;;;4.00;1.30;;;;;;;;;;5073010;28;20842;-66
2021/10/06 12:11:04;;;;;;;1.67;0.77;;;;;;;;;;5072246;28;20482;-68
2021/10/06 12:13:32;;;;;;;2.23;0.90;;;;;;;;;;5088993;28;20451;-67
2021/10/06 12:15:59;;;;;;;3.03;1.07;;;;;;;;;;5086059;28;20448;-67
2021/10/06 12:18:26;;;;;;;5.03;0.80;;;;;;;;;;5088250;28;20444;-67
2021/10/06 12:20:55;;;;;;;1.40;0.90;;;;;;;;;;5085692;28;20917;-66
2021/10/06 12:23:26;;;;;;;1.07;0.80;;;;;;;;;;5081831;28;20453;-67
2021/10/06 12:25:54;;;;;;;1.50;0.70;;;;;;;;;;5080975;28;20449;-65
2021/10/06 12:28:22;;;;;;;1.20;0.60;;;;;;;;;;5075064;28;20452;-65
2021/10/06 12:30:53;;;;;;;1.50;1.10;;;;;;;;;;5085569;28;20453;-65
2021/10/06 12:33:21;;;;;;;0.80;0.60;;;;;;;;;;5085105;28;20453;-65
2021/10/06 12:35:49;;;;;;;1.03;0.73;;;;;;;;;;5067360;28;20545;-66
2021/10/06 12:38:18;;;;;;;2.93;1.00;;;;;;;;;;5083221;28;20448;-66
2021/10/06 12:40:48;;;;;;;1.67;1.00;;;14.50;99.90;;;;;;5077405;28;20525;-65
2021/10/06 12:43:18;;;;;;;1.83;1.10;;;12.70;99.90;;;;;;5068428;28;20504;-65
2021/10/06 12:46:02;;;;;;;2.27;0.90;;;12.90;1.00;;;;;;5068985;28;20549;-66
2021/10/06 12:48:36;;;;;;;3.10;0.90;;;;;;;;;;5067928;28;20457;-65
2021/10/06 12:51:03;;;;;;;1.30;0.77;;;;;;;;;;5067764;28;20453;-65
2021/10/06 12:53:32;;;;;;;0.83;0.70;;;;;;;;;;5085837;28;20449;-66
2021/10/06 12:55:59;;;;;;;3.20;1.10;;;;;;;;;;5079110;28;20536;-65
2021/10/06 12:58:26;;;;;;;1.97;0.93;;;;;;;;;;5081784;28;20453;-65
2021/10/06 13:00:54;;;;;;;2.30;1.03;;;;;;;;;;5068812;28;20585;-66
2021/10/06 13:03:21;;;;;;;2.10;0.80;;;;;;;;;;5079826;28;20811;-65
2021/10/06 13:05:48;;;;;;;3.47;1.40;;;;;;;;;;5068926;28;20459;-66
2021/10/06 13:08:16;;;;;;;3.43;1.17;;;;;;;;;;5078488;28;20961;-66
2021/10/06 13:10:45;;;;;;;1.53;1.00;;;;;;;;;;5079025;28;21022;-66
2021/10/06 13:13:12;;;;;;;1.73;0.90;;;;;;;;;;5077801;28;20830;-66
2021/10/06 13:15:39;;;;;;;3.70;0.80;;;;;;;;;;5078569;28;20880;-66
2021/10/06 13:18:06;;;;;;;3.00;0.97;;;;;;;;;;5087709;28;20575;-66
2021/10/06 13:20:34;;;;;;;2.13;1.07;;;;;;;;;;5086074;28;20569;-66
2021/10/06 13:23:01;;;;;;;3.63;1.10;;;;;;;;;;5087605;28;20448;-66
2021/10/06 13:25:28;;;;;;;1.30;0.70;;;;;;;;;;5083635;28;20463;-66
2021/10/06 13:27:56;;;;;;;6.30;0.83;;;;;;;;;;5076221;28;20833;-67
2021/10/06 13:30:24;;;;;;;0.90;0.60;;;;;;;;;;5081842;28;20461;-67